sensor_id;sensor_type;location;lat;lon;timestamp;temperature;humidity
28773;DHT22;15925;51.222;5.678;2023-05-15T00:00:12;14.40;99.90
28773;DHT22;15925;51.222;5.678;2023-05-15T00:02:43;14.30;99.90
28773;DHT22;15925;51.222;5.678;2023-05-15T00:05:09;14.40;99.90
28773;DHT22;15925;51.222;5.678;2023-05-15T00:07:37;14.30;99.90
28773;DHT22;15925;51.222;5.678;2023-05-15T00:10:03;14.40;99.90
28773;DHT22;15925;51.222;5.678;2023-05-15T00:12:29;14.60;99.90
28773;DHT22;15925;51.222;5.678;2023-05-15T00:14:54;14.30;99.90
28773;DHT22;15925;51.222;5.678;2023-05-15T00:17:20;14.10;99.90
28773;DHT22;15925;51.222;5.678;2023-05-15T00:19:46;14.10;99.90
28773;DHT22;15925;51.222;5.678;2023-05-15T00:22:12;14.00;99.90
28773;DHT22;15925;51.222;5.678;2023-05-15T00:24:38;14.00;99.90
28773;DHT22;15925;51.222;5.678;2023-05-15T00:27:03;14.20;99.90
28773;DHT22;15925;51.222;5.678;2023-05-15T00:29:30;14.20;99.90
28773;DHT22;15925;51.222;5.678;2023-05-15T00:31:55;14.10;99.90
28773;DHT22;15925;51.222;5.678;2023-05-15T00:34:24;14.20;99.90
28773;DHT22;15925;51.222;5.678;2023-05-15T00:36:50;14.10;99.90
28773;DHT22;15925;51.222;5.678;2023-05-15T00:39:15;14.10;99.90
28773;DHT22;15925;51.222;5.678;2023-05-15T00:41:42;13.80;99.90
28773;DHT22;15925;51.222;5.678;2023-05-15T00:44:10;13.60;99.90
28773;DHT22;15925;51.222;5.678;2023-05-15T00:46:37;13.60;99.90
28773;DHT22;15925;51.222;5.678;2023-05-15T00:49:04;13.60;99.90
28773;DHT22;15925;51.222;5.678;2023-05-15T00:51:31;13.50;99.90
28773;DHT22;15925;51.222;5.678;2023-05-15T00:53:57;13.50;99.90
28773;DHT22;15925;51.222;5.678;2023-05-15T00:56:24;13.40;99.90
28773;DHT22;15925;51.222;5.678;2023-05-15T00:58:51;13.40;99.90
28773;DHT22;15925;51.222;5.678;2023-05-15T01:01:18;13.30;99.90
28773;DHT22;15925;51.222;5.678;2023-05-15T01:03:44;13.20;99.90
28773;DHT22;15925;51.222;5.678;2023-05-15T01:06:10;13.30;99.90
28773;DHT22;15925;51.222;5.678;2023-05-15T01:08:45;13.20;99.90
28773;DHT22;15925;51.222;5.678;2023-05-15T01:11:13;13.10;99.90
28773;DHT22;15925;51.222;5.678;2023-05-15T01:13:39;13.10;99.90
28773;DHT22;15925;51.222;5.678;2023-05-15T01:16:05;13.00;99.90
28773;DHT22;15925;51.222;5.678;2023-05-15T01:18:31;12.90;99.90
28773;DHT22;15925;51.222;5.678;2023-05-15T01:24:12;12.80;99.90
28773;DHT22;15925;51.222;5.678;2023-05-15T01:32:08;12.70;99.90
28773;DHT22;15925;51.222;5.678;2023-05-15T01:34:43;12.80;99.90
28773;DHT22;15925;51.222;5.678;2023-05-15T01:37:12;12.80;99.90
28773;DHT22;15925;51.222;5.678;2023-05-15T01:39:41;12.70;99.90
28773;DHT22;15925;51.222;5.678;2023-05-15T01:42:13;12.60;99.90
28773;DHT22;15925;51.222;5.678;2023-05-15T01:44:44;12.70;99.90
28773;DHT22;15925;51.222;5.678;2023-05-15T01:47:18;12.70;99.90
28773;DHT22;15925;51.222;5.678;2023-05-15T01:49:47;12.70;99.90
28773;DHT22;15925;51.222;5.678;2023-05-15T01:52:22;12.70;99.90
28773;DHT22;15925;51.222;5.678;2023-05-15T01:54:50;12.80;99.90
28773;DHT22;15925;51.222;5.678;2023-05-15T01:57:18;12.70;99.90
28773;DHT22;15925;51.222;5.678;2023-05-15T01:59:45;12.60;99.90
28773;DHT22;15925;51.222;5.678;2023-05-15T02:02:11;12.70;99.90
28773;DHT22;15925;51.222;5.678;2023-05-15T02:04:37;12.60;99.90
28773;DHT22;15925;51.222;5.678;2023-05-15T02:07:05;12.70;99.90
28773;DHT22;15925;51.222;5.678;2023-05-15T02:09:33;12.70;99.90
28773;DHT22;15925;51.222;5.678;2023-05-15T02:12:01;12.70;99.90
28773;DHT22;15925;51.222;5.678;2023-05-15T02:14:29;12.80;99.90
28773;DHT22;15925;51.222;5.678;2023-05-15T02:16:55;12.90;99.90
28773;DHT22;15925;51.222;5.678;2023-05-15T02:19:21;12.90;99.90
28773;DHT22;15925;51.222;5.678;2023-05-15T02:21:47;12.80;99.90
28773;DHT22;15925;51.222;5.678;2023-05-15T02:24:12;12.80;99.90
28773;DHT22;15925;51.222;5.678;2023-05-15T02:26:59;12.60;99.90
28773;DHT22;15925;51.222;5.678;2023-05-15T02:29:50;12.70;99.90
28773;DHT22;15925;51.222;5.678;2023-05-15T02:35:13;13.00;99.90
28773;DHT22;15925;51.222;5.678;2023-05-15T02:37:45;13.00;99.90
28773;DHT22;15925;51.222;5.678;2023-05-15T02:40:13;13.10;99.90
28773;DHT22;15925;51.222;5.678;2023-05-15T02:42:41;13.20;99.90
28773;DHT22;15925;51.222;5.678;2023-05-15T02:45:09;13.20;99.90
28773;DHT22;15925;51.222;5.678;2023-05-15T02:47:36;13.20;99.90
28773;DHT22;15925;51.222;5.678;2023-05-15T02:50:03;13.20;99.90
28773;DHT22;15925;51.222;5.678;2023-05-15T02:52:33;13.30;99.90
28773;DHT22;15925;51.222;5.678;2023-05-15T02:55:02;13.30;99.90
28773;DHT22;15925;51.222;5.678;2023-05-15T02:57:29;13.30;99.90
28773;DHT22;15925;51.222;5.678;2023-05-15T02:59:55;13.20;99.90
28773;DHT22;15925;51.222;5.678;2023-05-15T03:02:24;13.20;99.90
28773;DHT22;15925;51.222;5.678;2023-05-15T03:04:50;13.20;99.90
28773;DHT22;15925;51.222;5.678;2023-05-15T03:07:16;13.20;99.90
28773;DHT22;15925;51.222;5.678;2023-05-15T03:09:42;13.20;99.90
28773;DHT22;15925;51.222;5.678;2023-05-15T03:12:08;13.20;99.90
28773;DHT22;15925;51.222;5.678;2023-05-15T03:14:34;13.20;99.90
28773;DHT22;15925;51.222;5.678;2023-05-15T03:17:00;13.00;99.90
28773;DHT22;15925;51.222;5.678;2023-05-15T03:19:25;12.80;99.90
28773;DHT22;15925;51.222;5.678;2023-05-15T03:21:51;12.60;99.90
28773;DHT22;15925;51.222;5.678;2023-05-15T03:24:17;12.60;99.90
28773;DHT22;15925;51.222;5.678;2023-05-15T03:26:43;12.50;99.90
28773;DHT22;15925;51.222;5.678;2023-05-15T03:29:09;12.40;99.90
28773;DHT22;15925;51.222;5.678;2023-05-15T03:31:35;12.30;99.90
28773;DHT22;15925;51.222;5.678;2023-05-15T03:34:01;12.10;99.90
28773;DHT22;15925;51.222;5.678;2023-05-15T03:36:27;12.10;99.90
28773;DHT22;15925;51.222;5.678;2023-05-15T03:38:53;12.10;99.90
28773;DHT22;15925;51.222;5.678;2023-05-15T03:41:18;12.10;99.90
28773;DHT22;15925;51.222;5.678;2023-05-15T03:43:44;12.00;99.90
28773;DHT22;15925;51.222;5.678;2023-05-15T03:46:10;11.90;99.90
28773;DHT22;15925;51.222;5.678;2023-05-15T03:48:39;11.90;99.90
28773;DHT22;15925;51.222;5.678;2023-05-15T03:51:05;12.00;99.90
28773;DHT22;15925;51.222;5.678;2023-05-15T03:53:31;11.90;99.90
28773;DHT22;15925;51.222;5.678;2023-05-15T03:55:57;11.80;99.90
28773;DHT22;15925;51.222;5.678;2023-05-15T03:58:22;11.60;99.90
28773;DHT22;15925;51.222;5.678;2023-05-15T04:00:48;11.60;99.90
28773;DHT22;15925;51.222;5.678;2023-05-15T04:03:14;11.60;99.90
28773;DHT22;15925;51.222;5.678;2023-05-15T04:05:40;11.60;99.90
28773;DHT22;15925;51.222;5.678;2023-05-15T04:08:06;11.50;99.90
28773;DHT22;15925;51.222;5.678;2023-05-15T04:10:31;11.60;99.90
28773;DHT22;15925;51.222;5.678;2023-05-15T04:12:58;11.50;99.90
28773;DHT22;15925;51.222;5.678;2023-05-15T04:15:24;11.60;99.90
28773;DHT22;15925;51.222;5.678;2023-05-15T04:17:53;11.60;99.90
28773;DHT22;15925;51.222;5.678;2023-05-15T04:20:21;11.60;99.90
28773;DHT22;15925;51.222;5.678;2023-05-15T04:22:47;11.60;99.90
28773;DHT22;15925;51.222;5.678;2023-05-15T04:25:13;11.60;99.90
28773;DHT22;15925;51.222;5.678;2023-05-15T04:27:40;11.60;99.90
28773;DHT22;15925;51.222;5.678;2023-05-15T04:30:06;11.80;99.90
28773;DHT22;15925;51.222;5.678;2023-05-15T04:32:33;11.80;99.90
28773;DHT22;15925;51.222;5.678;2023-05-15T04:34:59;11.70;99.90
28773;DHT22;15925;51.222;5.678;2023-05-15T04:37:26;11.80;99.90
28773;DHT22;15925;51.222;5.678;2023-05-15T04:39:52;11.80;99.90
28773;DHT22;15925;51.222;5.678;2023-05-15T04:42:18;12.00;99.90
28773;DHT22;15925;51.222;5.678;2023-05-15T04:44:43;12.00;99.90
28773;DHT22;15925;51.222;5.678;2023-05-15T04:47:09;12.00;99.90
28773;DHT22;15925;51.222;5.678;2023-05-15T04:49:36;12.00;99.90
28773;DHT22;15925;51.222;5.678;2023-05-15T04:52:02;11.90;99.90
28773;DHT22;15925;51.222;5.678;2023-05-15T04:54:28;12.00;99.90
28773;DHT22;15925;51.222;5.678;2023-05-15T04:56:54;11.90;99.90
28773;DHT22;15925;51.222;5.678;2023-05-15T04:59:20;11.90;99.90
28773;DHT22;15925;51.222;5.678;2023-05-15T05:01:45;11.80;99.90
28773;DHT22;15925;51.222;5.678;2023-05-15T05:04:11;11.80;99.90
28773;DHT22;15925;51.222;5.678;2023-05-15T05:06:37;11.90;99.90
28773;DHT22;15925;51.222;5.678;2023-05-15T05:09:03;11.80;99.90
28773;DHT22;15925;51.222;5.678;2023-05-15T05:11:29;11.60;99.90
28773;DHT22;15925;51.222;5.678;2023-05-15T05:13:55;11.60;99.90
28773;DHT22;15925;51.222;5.678;2023-05-15T05:16:20;11.40;99.90
28773;DHT22;15925;51.222;5.678;2023-05-15T05:18:46;11.40;99.90
28773;DHT22;15925;51.222;5.678;2023-05-15T05:21:12;11.30;99.90
28773;DHT22;15925;51.222;5.678;2023-05-15T05:23:38;11.20;99.90
28773;DHT22;15925;51.222;5.678;2023-05-15T05:26:04;11.30;99.90
28773;DHT22;15925;51.222;5.678;2023-05-15T05:28:30;11.20;99.90
28773;DHT22;15925;51.222;5.678;2023-05-15T05:30:56;11.20;99.90
28773;DHT22;15925;51.222;5.678;2023-05-15T05:33:22;11.10;99.90
28773;DHT22;15925;51.222;5.678;2023-05-15T05:35:47;11.00;99.90
28773;DHT22;15925;51.222;5.678;2023-05-15T05:38:13;11.10;99.90
28773;DHT22;15925;51.222;5.678;2023-05-15T05:40:39;11.10;99.90
28773;DHT22;15925;51.222;5.678;2023-05-15T05:43:05;11.00;99.90
28773;DHT22;15925;51.222;5.678;2023-05-15T05:45:30;11.00;99.90
28773;DHT22;15925;51.222;5.678;2023-05-15T05:47:56;10.90;99.90
28773;DHT22;15925;51.222;5.678;2023-05-15T05:50:23;10.90;99.90
28773;DHT22;15925;51.222;5.678;2023-05-15T05:52:49;10.80;99.90
28773;DHT22;15925;51.222;5.678;2023-05-15T05:55:15;10.80;99.90
28773;DHT22;15925;51.222;5.678;2023-05-15T05:57:41;10.70;99.90
28773;DHT22;15925;51.222;5.678;2023-05-15T06:00:07;10.80;99.90
28773;DHT22;15925;51.222;5.678;2023-05-15T06:02:37;10.80;99.90
28773;DHT22;15925;51.222;5.678;2023-05-15T06:05:03;10.80;99.90
28773;DHT22;15925;51.222;5.678;2023-05-15T06:07:31;10.70;99.90
28773;DHT22;15925;51.222;5.678;2023-05-15T06:09:57;10.80;99.90
28773;DHT22;15925;51.222;5.678;2023-05-15T06:12:22;10.80;99.90
28773;DHT22;15925;51.222;5.678;2023-05-15T06:14:48;10.80;99.90
28773;DHT22;15925;51.222;5.678;2023-05-15T06:17:14;10.90;99.90
28773;DHT22;15925;51.222;5.678;2023-05-15T06:19:39;11.00;99.90
28773;DHT22;15925;51.222;5.678;2023-05-15T06:22:05;11.10;99.90
28773;DHT22;15925;51.222;5.678;2023-05-15T06:24:31;11.10;99.90
28773;DHT22;15925;51.222;5.678;2023-05-15T06:26:57;11.20;99.90
28773;DHT22;15925;51.222;5.678;2023-05-15T06:29:23;11.20;99.90
28773;DHT22;15925;51.222;5.678;2023-05-15T06:31:49;11.20;99.90
28773;DHT22;15925;51.222;5.678;2023-05-15T06:34:14;11.20;99.90
28773;DHT22;15925;51.222;5.678;2023-05-15T06:36:40;11.20;99.90
28773;DHT22;15925;51.222;5.678;2023-05-15T06:39:06;11.20;99.90
28773;DHT22;15925;51.222;5.678;2023-05-15T06:41:35;11.30;99.90
28773;DHT22;15925;51.222;5.678;2023-05-15T06:44:02;11.30;99.90
28773;DHT22;15925;51.222;5.678;2023-05-15T06:46:28;11.40;99.90
28773;DHT22;15925;51.222;5.678;2023-05-15T06:48:54;11.40;99.90
28773;DHT22;15925;51.222;5.678;2023-05-15T06:51:20;11.40;99.90
28773;DHT22;15925;51.222;5.678;2023-05-15T06:53:46;11.40;99.90
28773;DHT22;15925;51.222;5.678;2023-05-15T06:56:11;11.50;99.90
28773;DHT22;15925;51.222;5.678;2023-05-15T06:58:37;11.50;99.90
28773;DHT22;15925;51.222;5.678;2023-05-15T07:01:03;11.60;99.90
28773;DHT22;15925;51.222;5.678;2023-05-15T07:03:31;11.80;99.90
28773;DHT22;15925;51.222;5.678;2023-05-15T07:05:56;11.80;99.90
28773;DHT22;15925;51.222;5.678;2023-05-15T07:08:22;12.00;99.90
28773;DHT22;15925;51.222;5.678;2023-05-15T07:10:48;12.00;99.90
28773;DHT22;15925;51.222;5.678;2023-05-15T07:13:18;12.10;99.90
28773;DHT22;15925;51.222;5.678;2023-05-15T07:15:44;12.10;99.90
28773;DHT22;15925;51.222;5.678;2023-05-15T07:18:10;12.20;99.90
28773;DHT22;15925;51.222;5.678;2023-05-15T07:20:36;12.40;99.90
28773;DHT22;15925;51.222;5.678;2023-05-15T07:23:02;12.50;99.90
28773;DHT22;15925;51.222;5.678;2023-05-15T07:25:28;12.40;99.90
28773;DHT22;15925;51.222;5.678;2023-05-15T07:27:54;12.40;99.90
28773;DHT22;15925;51.222;5.678;2023-05-15T07:30:20;12.50;99.90
28773;DHT22;15925;51.222;5.678;2023-05-15T07:32:46;12.40;99.90
28773;DHT22;15925;51.222;5.678;2023-05-15T07:35:11;12.60;99.90
28773;DHT22;15925;51.222;5.678;2023-05-15T07:37:37;12.60;99.90
28773;DHT22;15925;51.222;5.678;2023-05-15T07:40:03;12.70;99.90
28773;DHT22;15925;51.222;5.678;2023-05-15T07:42:29;12.70;99.90
28773;DHT22;15925;51.222;5.678;2023-05-15T07:44:55;12.80;99.90
28773;DHT22;15925;51.222;5.678;2023-05-15T07:47:21;13.00;99.90
28773;DHT22;15925;51.222;5.678;2023-05-15T07:49:47;13.00;99.90
28773;DHT22;15925;51.222;5.678;2023-05-15T07:52:12;13.10;99.90
28773;DHT22;15925;51.222;5.678;2023-05-15T07:54:39;13.10;99.90
28773;DHT22;15925;51.222;5.678;2023-05-15T07:57:07;13.20;99.90
28773;DHT22;15925;51.222;5.678;2023-05-15T07:59:33;13.30;99.90
28773;DHT22;15925;51.222;5.678;2023-05-15T08:01:59;13.30;99.90
28773;DHT22;15925;51.222;5.678;2023-05-15T08:04:25;13.30;99.90
28773;DHT22;15925;51.222;5.678;2023-05-15T08:06:50;13.40;99.90
28773;DHT22;15925;51.222;5.678;2023-05-15T08:09:16;13.50;99.90
28773;DHT22;15925;51.222;5.678;2023-05-15T08:11:42;13.60;99.90
28773;DHT22;15925;51.222;5.678;2023-05-15T08:14:08;13.60;99.90
28773;DHT22;15925;51.222;5.678;2023-05-15T08:16:34;13.70;99.90
28773;DHT22;15925;51.222;5.678;2023-05-15T08:19:00;13.80;99.90
28773;DHT22;15925;51.222;5.678;2023-05-15T08:21:29;13.90;99.90
28773;DHT22;15925;51.222;5.678;2023-05-15T08:23:56;14.10;99.90
28773;DHT22;15925;51.222;5.678;2023-05-15T08:26:22;14.20;99.90
28773;DHT22;15925;51.222;5.678;2023-05-15T08:28:48;14.30;99.90
28773;DHT22;15925;51.222;5.678;2023-05-15T08:31:14;14.20;99.90
28773;DHT22;15925;51.222;5.678;2023-05-15T08:33:40;14.30;99.90
28773;DHT22;15925;51.222;5.678;2023-05-15T08:36:06;14.40;99.90
28773;DHT22;15925;51.222;5.678;2023-05-15T08:38:32;14.50;99.90
28773;DHT22;15925;51.222;5.678;2023-05-15T08:41:03;14.70;99.90
28773;DHT22;15925;51.222;5.678;2023-05-15T08:43:31;14.70;99.90
28773;DHT22;15925;51.222;5.678;2023-05-15T08:46:01;14.80;99.90
28773;DHT22;15925;51.222;5.678;2023-05-15T08:48:26;14.90;99.90
28773;DHT22;15925;51.222;5.678;2023-05-15T08:50:55;14.90;99.90
28773;DHT22;15925;51.222;5.678;2023-05-15T08:53:22;15.10;99.90
28773;DHT22;15925;51.222;5.678;2023-05-15T08:55:49;15.20;99.90
28773;DHT22;15925;51.222;5.678;2023-05-15T08:58:15;15.30;99.90
28773;DHT22;15925;51.222;5.678;2023-05-15T09:00:41;15.40;99.90
28773;DHT22;15925;51.222;5.678;2023-05-15T09:03:13;15.60;99.90
28773;DHT22;15925;51.222;5.678;2023-05-15T09:05:40;15.80;99.90
28773;DHT22;15925;51.222;5.678;2023-05-15T09:08:07;15.90;99.90
28773;DHT22;15925;51.222;5.678;2023-05-15T09:10:33;16.00;99.90
28773;DHT22;15925;51.222;5.678;2023-05-15T09:13:01;16.20;99.90
28773;DHT22;15925;51.222;5.678;2023-05-15T09:15:27;16.30;99.90
28773;DHT22;15925;51.222;5.678;2023-05-15T09:17:53;16.40;99.90
28773;DHT22;15925;51.222;5.678;2023-05-15T09:20:35;16.50;99.90
28773;DHT22;15925;51.222;5.678;2023-05-15T09:23:03;16.50;99.90
28773;DHT22;15925;51.222;5.678;2023-05-15T09:28:03;16.80;99.90
28773;DHT22;15925;51.222;5.678;2023-05-15T09:30:29;16.90;99.90
28773;DHT22;15925;51.222;5.678;2023-05-15T09:32:58;16.80;99.90
28773;DHT22;15925;51.222;5.678;2023-05-15T09:35:38;16.90;99.90
28773;DHT22;15925;51.222;5.678;2023-05-15T09:38:10;17.00;99.90
28773;DHT22;15925;51.222;5.678;2023-05-15T09:40:38;17.20;99.90
28773;DHT22;15925;51.222;5.678;2023-05-15T09:43:05;17.20;99.90
28773;DHT22;15925;51.222;5.678;2023-05-15T09:45:31;17.30;99.90
28773;DHT22;15925;51.222;5.678;2023-05-15T09:48:03;17.30;99.90
28773;DHT22;15925;51.222;5.678;2023-05-15T09:52:59;17.50;99.90
28773;DHT22;15925;51.222;5.678;2023-05-15T09:55:25;17.40;99.90
28773;DHT22;15925;51.222;5.678;2023-05-15T09:58:11;17.60;99.90
28773;DHT22;15925;51.222;5.678;2023-05-15T10:00:39;17.70;99.90
28773;DHT22;15925;51.222;5.678;2023-05-15T10:03:07;17.80;99.90
28773;DHT22;15925;51.222;5.678;2023-05-15T10:05:33;17.90;99.90
28773;DHT22;15925;51.222;5.678;2023-05-15T10:08:00;18.00;99.90
28773;DHT22;15925;51.222;5.678;2023-05-15T10:10:27;18.20;99.90
28773;DHT22;15925;51.222;5.678;2023-05-15T10:12:54;18.20;99.90
28773;DHT22;15925;51.222;5.678;2023-05-15T10:15:21;18.30;99.90
28773;DHT22;15925;51.222;5.678;2023-05-15T10:17:47;18.50;99.90
28773;DHT22;15925;51.222;5.678;2023-05-15T10:20:16;18.50;99.90
28773;DHT22;15925;51.222;5.678;2023-05-15T10:22:46;18.60;99.90
28773;DHT22;15925;51.222;5.678;2023-05-15T10:27:53;18.60;99.90
28773;DHT22;15925;51.222;5.678;2023-05-15T10:30:20;18.60;99.90
28773;DHT22;15925;51.222;5.678;2023-05-15T10:32:48;18.80;99.90
28773;DHT22;15925;51.222;5.678;2023-05-15T10:35:14;18.90;99.90
28773;DHT22;15925;51.222;5.678;2023-05-15T10:37:41;19.00;99.90
28773;DHT22;15925;51.222;5.678;2023-05-15T10:40:10;18.90;99.90
28773;DHT22;15925;51.222;5.678;2023-05-15T10:42:37;19.00;99.90
28773;DHT22;15925;51.222;5.678;2023-05-15T10:45:06;19.10;99.90
28773;DHT22;15925;51.222;5.678;2023-05-15T10:47:32;19.30;99.90
28773;DHT22;15925;51.222;5.678;2023-05-15T10:49:58;19.30;99.90
28773;DHT22;15925;51.222;5.678;2023-05-15T10:52:24;19.30;99.90
28773;DHT22;15925;51.222;5.678;2023-05-15T10:54:52;19.40;99.90
28773;DHT22;15925;51.222;5.678;2023-05-15T10:57:20;19.20;99.90
28773;DHT22;15925;51.222;5.678;2023-05-15T10:59:46;19.10;99.90
28773;DHT22;15925;51.222;5.678;2023-05-15T11:04:44;18.70;99.90
28773;DHT22;15925;51.222;5.678;2023-05-15T11:07:14;18.50;99.90
28773;DHT22;15925;51.222;5.678;2023-05-15T11:09:41;18.40;99.90
28773;DHT22;15925;51.222;5.678;2023-05-15T11:12:10;18.30;99.90
28773;DHT22;15925;51.222;5.678;2023-05-15T11:14:37;18.30;99.90
28773;DHT22;15925;51.222;5.678;2023-05-15T11:17:12;18.20;99.90
28773;DHT22;15925;51.222;5.678;2023-05-15T11:22:31;18.20;99.90
28773;DHT22;15925;51.222;5.678;2023-05-15T11:27:28;17.80;99.90
28773;DHT22;15925;51.222;5.678;2023-05-15T11:35:29;17.50;99.90
28773;DHT22;15925;51.222;5.678;2023-05-15T11:40:58;17.30;99.90
28773;DHT22;15925;51.222;5.678;2023-05-15T11:43:32;17.20;99.90
28773;DHT22;15925;51.222;5.678;2023-05-15T11:48:32;16.90;99.90
28773;DHT22;15925;51.222;5.678;2023-05-15T11:51:00;16.90;99.90
28773;DHT22;15925;51.222;5.678;2023-05-15T11:53:28;16.80;99.90
28773;DHT22;15925;51.222;5.678;2023-05-15T11:55:54;16.70;99.90
28773;DHT22;15925;51.222;5.678;2023-05-15T11:58:22;16.70;99.90
28773;DHT22;15925;51.222;5.678;2023-05-15T12:00:49;16.70;99.90
28773;DHT22;15925;51.222;5.678;2023-05-15T12:03:26;16.70;99.90
28773;DHT22;15925;51.222;5.678;2023-05-15T12:05:52;16.80;99.90
28773;DHT22;15925;51.222;5.678;2023-05-15T12:08:19;16.90;99.90
28773;DHT22;15925;51.222;5.678;2023-05-15T12:10:48;17.00;99.90
28773;DHT22;15925;51.222;5.678;2023-05-15T12:13:16;17.00;99.90
28773;DHT22;15925;51.222;5.678;2023-05-15T12:15:44;17.00;99.90
28773;DHT22;15925;51.222;5.678;2023-05-15T12:18:10;17.00;99.90
28773;DHT22;15925;51.222;5.678;2023-05-15T12:20:37;16.90;99.90
28773;DHT22;15925;51.222;5.678;2023-05-15T12:23:05;17.00;99.90
28773;DHT22;15925;51.222;5.678;2023-05-15T12:25:35;16.90;99.90
28773;DHT22;15925;51.222;5.678;2023-05-15T12:28:02;16.80;99.90
28773;DHT22;15925;51.222;5.678;2023-05-15T12:30:32;16.80;99.90
28773;DHT22;15925;51.222;5.678;2023-05-15T12:33:01;16.80;99.90
28773;DHT22;15925;51.222;5.678;2023-05-15T12:35:28;16.70;99.90
28773;DHT22;15925;51.222;5.678;2023-05-15T12:37:54;16.70;99.90
28773;DHT22;15925;51.222;5.678;2023-05-15T12:40:21;16.60;99.90
28773;DHT22;15925;51.222;5.678;2023-05-15T12:42:52;16.50;99.90
28773;DHT22;15925;51.222;5.678;2023-05-15T12:45:19;16.70;99.90
28773;DHT22;15925;51.222;5.678;2023-05-15T12:47:47;16.80;99.90
28773;DHT22;15925;51.222;5.678;2023-05-15T12:50:20;16.80;99.90
28773;DHT22;15925;51.222;5.678;2023-05-15T12:52:50;16.70;99.90
28773;DHT22;15925;51.222;5.678;2023-05-15T12:55:27;16.60;99.90
28773;DHT22;15925;51.222;5.678;2023-05-15T12:57:57;16.70;99.90
28773;DHT22;15925;51.222;5.678;2023-05-15T13:00:24;16.60;99.90
28773;DHT22;15925;51.222;5.678;2023-05-15T13:02:55;16.40;99.90
28773;DHT22;15925;51.222;5.678;2023-05-15T13:05:25;16.40;99.90
28773;DHT22;15925;51.222;5.678;2023-05-15T13:07:51;16.20;99.90
28773;DHT22;15925;51.222;5.678;2023-05-15T13:10:22;16.20;99.90
28773;DHT22;15925;51.222;5.678;2023-05-15T13:12:52;16.10;99.90
28773;DHT22;15925;51.222;5.678;2023-05-15T13:15:22;16.10;99.90
28773;DHT22;15925;51.222;5.678;2023-05-15T13:18:15;16.00;99.90
28773;DHT22;15925;51.222;5.678;2023-05-15T13:20:47;15.90;99.90
28773;DHT22;15925;51.222;5.678;2023-05-15T13:23:17;16.00;99.90
28773;DHT22;15925;51.222;5.678;2023-05-15T13:25:44;16.00;99.90
28773;DHT22;15925;51.222;5.678;2023-05-15T13:28:11;15.90;99.90
28773;DHT22;15925;51.222;5.678;2023-05-15T13:30:37;16.00;99.90
28773;DHT22;15925;51.222;5.678;2023-05-15T13:33:06;15.90;99.90
28773;DHT22;15925;51.222;5.678;2023-05-15T13:35:32;15.90;99.90
28773;DHT22;15925;51.222;5.678;2023-05-15T13:37:58;16.00;99.90
28773;DHT22;15925;51.222;5.678;2023-05-15T13:40:24;16.00;99.90
28773;DHT22;15925;51.222;5.678;2023-05-15T13:42:51;16.10;99.90
28773;DHT22;15925;51.222;5.678;2023-05-15T13:45:17;16.10;99.90
28773;DHT22;15925;51.222;5.678;2023-05-15T13:47:43;16.00;99.90
28773;DHT22;15925;51.222;5.678;2023-05-15T13:50:11;16.10;99.90
28773;DHT22;15925;51.222;5.678;2023-05-15T13:52:38;16.10;99.90
28773;DHT22;15925;51.222;5.678;2023-05-15T13:55:04;16.10;99.90
28773;DHT22;15925;51.222;5.678;2023-05-15T13:57:31;16.20;99.90
28773;DHT22;15925;51.222;5.678;2023-05-15T13:59:57;16.20;99.90
28773;DHT22;15925;51.222;5.678;2023-05-15T14:02:23;16.20;99.90
28773;DHT22;15925;51.222;5.678;2023-05-15T14:04:51;16.20;99.90
28773;DHT22;15925;51.222;5.678;2023-05-15T14:07:18;16.20;99.90
28773;DHT22;15925;51.222;5.678;2023-05-15T14:09:44;16.30;99.90
28773;DHT22;15925;51.222;5.678;2023-05-15T14:12:10;16.60;99.90
28773;DHT22;15925;51.222;5.678;2023-05-15T14:14:37;16.60;99.90
28773;DHT22;15925;51.222;5.678;2023-05-15T14:17:03;16.70;99.90
28773;DHT22;15925;51.222;5.678;2023-05-15T14:19:28;16.80;99.90
28773;DHT22;15925;51.222;5.678;2023-05-15T14:21:54;16.90;99.90
28773;DHT22;15925;51.222;5.678;2023-05-15T14:24:20;16.90;99.90
28773;DHT22;15925;51.222;5.678;2023-05-15T14:26:46;16.90;99.90
28773;DHT22;15925;51.222;5.678;2023-05-15T14:29:12;17.00;99.90
28773;DHT22;15925;51.222;5.678;2023-05-15T14:31:37;17.00;99.90
28773;DHT22;15925;51.222;5.678;2023-05-15T14:34:03;17.10;99.90
28773;DHT22;15925;51.222;5.678;2023-05-15T14:36:30;17.10;99.90
28773;DHT22;15925;51.222;5.678;2023-05-15T14:38:56;17.10;99.90
28773;DHT22;15925;51.222;5.678;2023-05-15T14:41:21;17.10;99.90
28773;DHT22;15925;51.222;5.678;2023-05-15T14:43:47;17.10;99.90
28773;DHT22;15925;51.222;5.678;2023-05-15T14:46:13;17.00;99.90
28773;DHT22;15925;51.222;5.678;2023-05-15T14:48:39;17.10;99.90
28773;DHT22;15925;51.222;5.678;2023-05-15T14:51:05;16.90;99.90
28773;DHT22;15925;51.222;5.678;2023-05-15T14:53:30;16.70;99.90
28773;DHT22;15925;51.222;5.678;2023-05-15T14:55:56;16.50;99.90
28773;DHT22;15925;51.222;5.678;2023-05-15T14:58:23;16.40;99.90
28773;DHT22;15925;51.222;5.678;2023-05-15T15:00:49;16.20;99.90
28773;DHT22;15925;51.222;5.678;2023-05-15T15:03:15;15.90;99.90
28773;DHT22;15925;51.222;5.678;2023-05-15T15:05:41;15.80;99.90
28773;DHT22;15925;51.222;5.678;2023-05-15T15:08:08;15.60;99.90
28773;DHT22;15925;51.222;5.678;2023-05-15T15:10:36;15.60;99.90
28773;DHT22;15925;51.222;5.678;2023-05-15T15:13:03;15.50;99.90
28773;DHT22;15925;51.222;5.678;2023-05-15T15:15:32;15.40;99.90
28773;DHT22;15925;51.222;5.678;2023-05-15T15:17:59;15.40;99.90
28773;DHT22;15925;51.222;5.678;2023-05-15T15:20:26;15.40;99.90
28773;DHT22;15925;51.222;5.678;2023-05-15T15:22:53;15.40;99.90
28773;DHT22;15925;51.222;5.678;2023-05-15T15:25:19;15.40;99.90
28773;DHT22;15925;51.222;5.678;2023-05-15T15:27:45;15.30;99.90
28773;DHT22;15925;51.222;5.678;2023-05-15T15:30:11;15.30;99.90
28773;DHT22;15925;51.222;5.678;2023-05-15T15:32:38;15.30;99.90
28773;DHT22;15925;51.222;5.678;2023-05-15T15:35:05;15.30;99.90
28773;DHT22;15925;51.222;5.678;2023-05-15T15:37:32;15.20;99.90
28773;DHT22;15925;51.222;5.678;2023-05-15T15:40:02;15.30;99.90
28773;DHT22;15925;51.222;5.678;2023-05-15T15:42:30;15.30;99.90
28773;DHT22;15925;51.222;5.678;2023-05-15T15:44:57;15.30;99.90
28773;DHT22;15925;51.222;5.678;2023-05-15T15:47:23;15.40;99.90
28773;DHT22;15925;51.222;5.678;2023-05-15T15:49:52;15.40;99.90
28773;DHT22;15925;51.222;5.678;2023-05-15T15:52:18;15.40;99.90
28773;DHT22;15925;51.222;5.678;2023-05-15T15:54:45;15.50;99.90
28773;DHT22;15925;51.222;5.678;2023-05-15T15:57:17;15.50;99.90
28773;DHT22;15925;51.222;5.678;2023-05-15T15:59:43;15.50;99.90
28773;DHT22;15925;51.222;5.678;2023-05-15T16:02:10;15.40;99.90
28773;DHT22;15925;51.222;5.678;2023-05-15T16:04:37;15.30;99.90
28773;DHT22;15925;51.222;5.678;2023-05-15T16:07:03;15.30;99.90